sensor_id;sensor_type;location;lat;lon;timestamp;P1;durP1;ratioP1;P2;durP2;ratioP2
5149;SDS011;2593;52.466;13.436;2023-07-20T00:01:22;9.27;;;4.90;;
5149;SDS011;2593;52.466;13.436;2023-07-20T00:03:48;7.10;;;4.33;;
5149;SDS011;2593;52.466;13.436;2023-07-20T00:06:19;24.23;;;4.87;;
5149;SDS011;2593;52.466;13.436;2023-07-20T00:08:45;4.60;;;3.97;;
5149;SDS011;2593;52.466;13.436;2023-07-20T00:11:11;9.40;;;4.40;;
5149;SDS011;2593;52.466;13.436;2023-07-20T00:13:38;5.80;;;4.47;;
5149;SDS011;2593;52.466;13.436;2023-07-20T00:16:06;12.30;;;5.37;;
5149;SDS011;2593;52.466;13.436;2023-07-20T00:18:32;11.57;;;6.80;;
5149;SDS011;2593;52.466;13.436;2023-07-20T00:20:58;6.40;;;4.77;;
5149;SDS011;2593;52.466;13.436;2023-07-20T00:23:25;5.53;;;5.03;;
5149;SDS011;2593;52.466;13.436;2023-07-20T00:25:51;7.90;;;4.60;;
5149;SDS011;2593;52.466;13.436;2023-07-20T00:28:17;7.60;;;5.30;;
5149;SDS011;2593;52.466;13.436;2023-07-20T00:30:43;10.10;;;5.00;;
5149;SDS011;2593;52.466;13.436;2023-07-20T00:33:12;4.53;;;4.13;;
5149;SDS011;2593;52.466;13.436;2023-07-20T00:35:38;8.97;;;4.40;;
5149;SDS011;2593;52.466;13.436;2023-07-20T00:38:05;5.23;;;4.43;;
5149;SDS011;2593;52.466;13.436;2023-07-20T00:40:37;5.13;;;4.63;;
5149;SDS011;2593;52.466;13.436;2023-07-20T00:43:03;5.77;;;4.17;;
5149;SDS011;2593;52.466;13.436;2023-07-20T00:45:29;12.10;;;4.77;;
5149;SDS011;2593;52.466;13.436;2023-07-20T00:47:55;8.47;;;5.30;;
5149;SDS011;2593;52.466;13.436;2023-07-20T00:50:23;6.53;;;4.37;;
5149;SDS011;2593;52.466;13.436;2023-07-20T00:52:49;9.33;;;5.77;;
5149;SDS011;2593;52.466;13.436;2023-07-20T00:55:16;4.77;;;4.30;;
5149;SDS011;2593;52.466;13.436;2023-07-20T00:57:42;8.60;;;4.93;;
5149;SDS011;2593;52.466;13.436;2023-07-20T01:00:08;4.97;;;3.60;;
5149;SDS011;2593;52.466;13.436;2023-07-20T01:02:34;10.17;;;5.83;;
5149;SDS011;2593;52.466;13.436;2023-07-20T01:05:01;9.67;;;5.23;;
5149;SDS011;2593;52.466;13.436;2023-07-20T01:07:31;6.83;;;4.90;;
5149;SDS011;2593;52.466;13.436;2023-07-20T01:10:01;6.73;;;4.20;;
5149;SDS011;2593;52.466;13.436;2023-07-20T01:12:47;6.20;;;5.43;;
5149;SDS011;2593;52.466;13.436;2023-07-20T01:15:13;6.57;;;5.90;;
5149;SDS011;2593;52.466;13.436;2023-07-20T01:17:39;6.10;;;5.50;;
5149;SDS011;2593;52.466;13.436;2023-07-20T01:20:06;7.37;;;5.43;;
5149;SDS011;2593;52.466;13.436;2023-07-20T01:25:53;6.10;;;5.60;;
5149;SDS011;2593;52.466;13.436;2023-07-20T01:33:03;6.67;;;4.43;;
5149;SDS011;2593;52.466;13.436;2023-07-20T01:35:30;6.40;;;5.43;;
5149;SDS011;2593;52.466;13.436;2023-07-20T01:37:56;5.80;;;4.80;;
5149;SDS011;2593;52.466;13.436;2023-07-20T01:40:23;5.27;;;4.87;;
5149;SDS011;2593;52.466;13.436;2023-07-20T01:42:50;10.70;;;5.20;;
5149;SDS011;2593;52.466;13.436;2023-07-20T01:45:17;5.70;;;5.20;;
5149;SDS011;2593;52.466;13.436;2023-07-20T01:47:43;10.00;;;5.50;;
5149;SDS011;2593;52.466;13.436;2023-07-20T01:50:09;7.27;;;5.60;;
5149;SDS011;2593;52.466;13.436;2023-07-20T01:52:35;10.13;;;5.83;;
5149;SDS011;2593;52.466;13.436;2023-07-20T01:55:01;6.43;;;5.20;;
5149;SDS011;2593;52.466;13.436;2023-07-20T01:57:27;9.73;;;5.10;;
5149;SDS011;2593;52.466;13.436;2023-07-20T01:59:53;6.37;;;5.17;;
5149;SDS011;2593;52.466;13.436;2023-07-20T02:02:19;10.43;;;6.20;;
5149;SDS011;2593;52.466;13.436;2023-07-20T02:04:45;11.03;;;6.27;;
5149;SDS011;2593;52.466;13.436;2023-07-20T02:07:11;9.10;;;5.60;;
5149;SDS011;2593;52.466;13.436;2023-07-20T02:09:37;9.10;;;6.20;;
5149;SDS011;2593;52.466;13.436;2023-07-20T02:12:04;6.43;;;5.83;;
5149;SDS011;2593;52.466;13.436;2023-07-20T02:14:30;6.30;;;5.80;;
5149;SDS011;2593;52.466;13.436;2023-07-20T02:16:56;7.27;;;6.57;;
5149;SDS011;2593;52.466;13.436;2023-07-20T02:19:24;15.67;;;5.63;;
5149;SDS011;2593;52.466;13.436;2023-07-20T02:21:51;6.50;;;5.90;;
5149;SDS011;2593;52.466;13.436;2023-07-20T02:24:17;8.20;;;6.57;;
5149;SDS011;2593;52.466;13.436;2023-07-20T02:26:44;6.23;;;5.50;;
5149;SDS011;2593;52.466;13.436;2023-07-20T02:29:10;6.13;;;5.53;;
5149;SDS011;2593;52.466;13.436;2023-07-20T02:31:38;8.53;;;6.33;;
5149;SDS011;2593;52.466;13.436;2023-07-20T02:34:05;5.63;;;5.10;;
5149;SDS011;2593;52.466;13.436;2023-07-20T02:36:32;6.13;;;5.63;;
5149;SDS011;2593;52.466;13.436;2023-07-20T02:38:58;6.73;;;5.23;;
5149;SDS011;2593;52.466;13.436;2023-07-20T02:41:24;8.60;;;6.80;;
5149;SDS011;2593;52.466;13.436;2023-07-20T02:43:50;6.93;;;5.87;;
5149;SDS011;2593;52.466;13.436;2023-07-20T02:46:16;7.10;;;6.40;;
5149;SDS011;2593;52.466;13.436;2023-07-20T02:48:42;7.33;;;6.63;;
5149;SDS011;2593;52.466;13.436;2023-07-20T02:51:08;10.17;;;7.33;;
5149;SDS011;2593;52.466;13.436;2023-07-20T02:53:36;13.97;;;8.07;;
5149;SDS011;2593;52.466;13.436;2023-07-20T02:56:02;9.33;;;7.80;;
5149;SDS011;2593;52.466;13.436;2023-07-20T02:58:29;9.60;;;7.77;;
5149;SDS011;2593;52.466;13.436;2023-07-20T03:00:55;10.77;;;8.00;;
5149;SDS011;2593;52.466;13.436;2023-07-20T03:03:21;9.70;;;8.00;;
5149;SDS011;2593;52.466;13.436;2023-07-20T03:05:47;9.60;;;8.60;;
5149;SDS011;2593;52.466;13.436;2023-07-20T03:08:19;10.27;;;8.40;;
5149;SDS011;2593;52.466;13.436;2023-07-20T03:10:45;12.07;;;8.80;;
5149;SDS011;2593;52.466;13.436;2023-07-20T03:13:11;11.90;;;10.63;;
5149;SDS011;2593;52.466;13.436;2023-07-20T03:15:39;9.13;;;8.10;;
5149;SDS011;2593;52.466;13.436;2023-07-20T03:18:05;13.80;;;10.97;;
5149;SDS011;2593;52.466;13.436;2023-07-20T03:20:31;13.93;;;12.40;;
5149;SDS011;2593;52.466;13.436;2023-07-20T03:22:57;18.40;;;14.07;;
5149;SDS011;2593;52.466;13.436;2023-07-20T03:25:23;16.07;;;13.47;;
5149;SDS011;2593;52.466;13.436;2023-07-20T03:27:49;15.03;;;12.27;;
5149;SDS011;2593;52.466;13.436;2023-07-20T03:30:15;11.50;;;10.40;;
5149;SDS011;2593;52.466;13.436;2023-07-20T03:32:41;16.43;;;11.77;;
5149;SDS011;2593;52.466;13.436;2023-07-20T03:35:08;14.33;;;11.50;;
5149;SDS011;2593;52.466;13.436;2023-07-20T03:37:34;13.00;;;10.20;;
5149;SDS011;2593;52.466;13.436;2023-07-20T03:40:01;12.60;;;10.93;;
5149;SDS011;2593;52.466;13.436;2023-07-20T03:42:28;14.33;;;10.50;;
5149;SDS011;2593;52.466;13.436;2023-07-20T03:44:54;14.27;;;11.13;;
5149;SDS011;2593;52.466;13.436;2023-07-20T03:47:21;13.90;;;11.63;;
5149;SDS011;2593;52.466;13.436;2023-07-20T03:49:47;21.37;;;11.00;;
5149;SDS011;2593;52.466;13.436;2023-07-20T03:52:13;15.40;;;11.10;;
5149;SDS011;2593;52.466;13.436;2023-07-20T03:54:39;17.17;;;11.10;;
5149;SDS011;2593;52.466;13.436;2023-07-20T03:57:05;14.17;;;10.83;;
5149;SDS011;2593;52.466;13.436;2023-07-20T03:59:32;14.37;;;10.53;;
5149;SDS011;2593;52.466;13.436;2023-07-20T04:01:58;14.70;;;12.30;;
5149;SDS011;2593;52.466;13.436;2023-07-20T04:04:24;17.07;;;12.27;;
5149;SDS011;2593;52.466;13.436;2023-07-20T04:06:51;21.90;;;12.57;;
5149;SDS011;2593;52.466;13.436;2023-07-20T04:09:17;18.23;;;13.50;;
5149;SDS011;2593;52.466;13.436;2023-07-20T04:11:43;18.00;;;13.33;;
5149;SDS011;2593;52.466;13.436;2023-07-20T04:14:10;15.57;;;13.97;;
5149;SDS011;2593;52.466;13.436;2023-07-20T04:16:36;19.57;;;14.40;;
5149;SDS011;2593;52.466;13.436;2023-07-20T04:19:02;21.13;;;15.90;;
5149;SDS011;2593;52.466;13.436;2023-07-20T04:21:28;18.07;;;14.87;;
5149;SDS011;2593;52.466;13.436;2023-07-20T04:23:54;19.37;;;17.27;;
5149;SDS011;2593;52.466;13.436;2023-07-20T04:26:20;22.63;;;16.80;;
5149;SDS011;2593;52.466;13.436;2023-07-20T04:28:46;15.07;;;13.63;;
5149;SDS011;2593;52.466;13.436;2023-07-20T04:31:14;19.40;;;13.40;;
5149;SDS011;2593;52.466;13.436;2023-07-20T04:33:40;13.50;;;12.10;;
5149;SDS011;2593;52.466;13.436;2023-07-20T04:36:06;12.60;;;11.07;;
5149;SDS011;2593;52.466;13.436;2023-07-20T04:38:33;12.57;;;11.27;;
5149;SDS011;2593;52.466;13.436;2023-07-20T04:40:59;16.80;;;13.77;;
5149;SDS011;2593;52.466;13.436;2023-07-20T04:43:25;17.50;;;13.53;;
5149;SDS011;2593;52.466;13.436;2023-07-20T04:45:51;17.90;;;13.70;;
5149;SDS011;2593;52.466;13.436;2023-07-20T04:48:18;17.43;;;14.13;;
5149;SDS011;2593;52.466;13.436;2023-07-20T04:50:44;18.83;;;13.87;;
5149;SDS011;2593;52.466;13.436;2023-07-20T04:53:11;13.23;;;11.93;;
5149;SDS011;2593;52.466;13.436;2023-07-20T04:55:38;19.27;;;12.30;;
5149;SDS011;2593;52.466;13.436;2023-07-20T04:58:04;16.83;;;12.30;;
5149;SDS011;2593;52.466;13.436;2023-07-20T05:00:31;12.33;;;10.63;;
5149;SDS011;2593;52.466;13.436;2023-07-20T05:02:57;12.00;;;10.30;;
5149;SDS011;2593;52.466;13.436;2023-07-20T05:05:24;14.10;;;10.03;;
5149;SDS011;2593;52.466;13.436;2023-07-20T05:07:50;11.30;;;9.67;;
5149;SDS011;2593;52.466;13.436;2023-07-20T05:10:16;16.27;;;9.23;;
5149;SDS011;2593;52.466;13.436;2023-07-20T05:12:43;14.93;;;8.50;;
5149;SDS011;2593;52.466;13.436;2023-07-20T05:15:09;10.70;;;9.03;;
5149;SDS011;2593;52.466;13.436;2023-07-20T05:17:35;9.50;;;8.17;;
5149;SDS011;2593;52.466;13.436;2023-07-20T05:20:01;10.20;;;8.03;;
5149;SDS011;2593;52.466;13.436;2023-07-20T05:22:29;11.57;;;7.47;;
5149;SDS011;2593;52.466;13.436;2023-07-20T05:24:55;9.70;;;7.13;;
5149;SDS011;2593;52.466;13.436;2023-07-20T05:27:21;10.13;;;7.10;;
5149;SDS011;2593;52.466;13.436;2023-07-20T05:29:47;11.40;;;6.73;;
5149;SDS011;2593;52.466;13.436;2023-07-20T05:32:13;10.20;;;7.17;;
5149;SDS011;2593;52.466;13.436;2023-07-20T05:34:39;17.90;;;5.13;;
5149;SDS011;2593;52.466;13.436;2023-07-20T05:37:05;8.43;;;6.13;;
5149;SDS011;2593;52.466;13.436;2023-07-20T05:39:32;5.87;;;5.30;;
5149;SDS011;2593;52.466;13.436;2023-07-20T05:41:58;10.20;;;4.63;;
5149;SDS011;2593;52.466;13.436;2023-07-20T05:44:24;7.10;;;5.10;;
5149;SDS011;2593;52.466;13.436;2023-07-20T05:46:50;5.93;;;4.50;;
5149;SDS011;2593;52.466;13.436;2023-07-20T05:49:16;6.40;;;5.30;;
5149;SDS011;2593;52.466;13.436;2023-07-20T05:51:42;7.20;;;4.43;;
5149;SDS011;2593;52.466;13.436;2023-07-20T05:54:08;9.73;;;4.70;;
5149;SDS011;2593;52.466;13.436;2023-07-20T05:56:34;8.07;;;5.60;;
5149;SDS011;2593;52.466;13.436;2023-07-20T05:59:00;7.00;;;4.03;;
5149;SDS011;2593;52.466;13.436;2023-07-20T06:01:27;16.40;;;4.90;;
5149;SDS011;2593;52.466;13.436;2023-07-20T06:03:53;7.07;;;4.27;;
5149;SDS011;2593;52.466;13.436;2023-07-20T06:06:19;14.47;;;5.90;;
5149;SDS011;2593;52.466;13.436;2023-07-20T06:08:45;7.50;;;5.23;;
5149;SDS011;2593;52.466;13.436;2023-07-20T06:11:11;7.73;;;4.97;;
5149;SDS011;2593;52.466;13.436;2023-07-20T06:13:37;6.30;;;5.23;;
5149;SDS011;2593;52.466;13.436;2023-07-20T06:16:03;5.83;;;5.00;;
5149;SDS011;2593;52.466;13.436;2023-07-20T06:18:30;5.63;;;5.10;;
5149;SDS011;2593;52.466;13.436;2023-07-20T06:20:56;8.73;;;5.87;;
5149;SDS011;2593;52.466;13.436;2023-07-20T06:23:22;8.73;;;7.33;;
5149;SDS011;2593;52.466;13.436;2023-07-20T06:25:48;9.80;;;6.57;;
5149;SDS011;2593;52.466;13.436;2023-07-20T06:28:14;15.40;;;6.87;;
5149;SDS011;2593;52.466;13.436;2023-07-20T06:30:40;12.10;;;8.37;;
5149;SDS011;2593;52.466;13.436;2023-07-20T06:33:06;22.17;;;7.63;;
5149;SDS011;2593;52.466;13.436;2023-07-20T06:35:33;6.83;;;6.13;;
5149;SDS011;2593;52.466;13.436;2023-07-20T06:38:00;12.60;;;5.13;;
5149;SDS011;2593;52.466;13.436;2023-07-20T06:40:28;7.03;;;5.30;;
5149;SDS011;2593;52.466;13.436;2023-07-20T06:42:54;7.00;;;4.77;;
5149;SDS011;2593;52.466;13.436;2023-07-20T06:45:20;5.93;;;4.17;;
5149;SDS011;2593;52.466;13.436;2023-07-20T06:47:46;11.07;;;4.37;;
5149;SDS011;2593;52.466;13.436;2023-07-20T06:50:12;4.50;;;4.10;;
5149;SDS011;2593;52.466;13.436;2023-07-20T06:52:38;12.17;;;5.13;;
5149;SDS011;2593;52.466;13.436;2023-07-20T06:55:05;4.20;;;3.90;;
5149;SDS011;2593;52.466;13.436;2023-07-20T06:57:31;4.33;;;3.23;;
5149;SDS011;2593;52.466;13.436;2023-07-20T06:59:57;4.10;;;3.70;;
5149;SDS011;2593;52.466;13.436;2023-07-20T07:02:24;5.40;;;3.80;;
5149;SDS011;2593;52.466;13.436;2023-07-20T07:04:50;4.90;;;3.40;;
5149;SDS011;2593;52.466;13.436;2023-07-20T07:07:16;8.43;;;3.30;;
5149;SDS011;2593;52.466;13.436;2023-07-20T07:09:42;5.90;;;2.70;;
5149;SDS011;2593;52.466;13.436;2023-07-20T07:12:08;3.40;;;3.10;;
5149;SDS011;2593;52.466;13.436;2023-07-20T07:14:34;3.50;;;3.00;;
5149;SDS011;2593;52.466;13.436;2023-07-20T07:19:29;6.53;;;2.20;;
5149;SDS011;2593;52.466;13.436;2023-07-20T07:21:55;2.27;;;2.07;;
5149;SDS011;2593;52.466;13.436;2023-07-20T07:24:21;2.57;;;2.00;;
5149;SDS011;2593;52.466;13.436;2023-07-20T07:26:47;4.30;;;2.10;;
5149;SDS011;2593;52.466;13.436;2023-07-20T07:29:13;1.77;;;1.60;;
5149;SDS011;2593;52.466;13.436;2023-07-20T07:31:39;5.73;;;2.33;;
5149;SDS011;2593;52.466;13.436;2023-07-20T07:34:05;1.63;;;1.50;;
5149;SDS011;2593;52.466;13.436;2023-07-20T07:36:31;2.50;;;1.63;;
5149;SDS011;2593;52.466;13.436;2023-07-20T07:38:57;3.53;;;1.70;;
5149;SDS011;2593;52.466;13.436;2023-07-20T07:41:23;1.80;;;1.70;;
5149;SDS011;2593;52.466;13.436;2023-07-20T07:43:49;2.10;;;1.80;;
5149;SDS011;2593;52.466;13.436;2023-07-20T07:46:16;2.30;;;2.10;;
5149;SDS011;2593;52.466;13.436;2023-07-20T07:48:42;1.50;;;1.33;;
5149;SDS011;2593;52.466;13.436;2023-07-20T07:51:08;1.20;;;1.00;;
5149;SDS011;2593;52.466;13.436;2023-07-20T07:53:34;6.53;;;1.57;;
5149;SDS011;2593;52.466;13.436;2023-07-20T07:56:01;2.80;;;1.30;;
5149;SDS011;2593;52.466;13.436;2023-07-20T07:58:28;3.13;;;1.20;;
5149;SDS011;2593;52.466;13.436;2023-07-20T08:00:54;1.40;;;1.10;;
5149;SDS011;2593;52.466;13.436;2023-07-20T08:03:20;2.13;;;1.33;;
5149;SDS011;2593;52.466;13.436;2023-07-20T08:05:49;5.53;;;1.63;;
5149;SDS011;2593;52.466;13.436;2023-07-20T08:08:15;2.13;;;0.90;;
5149;SDS011;2593;52.466;13.436;2023-07-20T08:10:41;1.20;;;1.10;;
5149;SDS011;2593;52.466;13.436;2023-07-20T08:13:07;2.07;;;1.87;;
5149;SDS011;2593;52.466;13.436;2023-07-20T08:15:33;1.90;;;1.40;;
5149;SDS011;2593;52.466;13.436;2023-07-20T08:17:59;0.93;;;0.90;;
5149;SDS011;2593;52.466;13.436;2023-07-20T08:20:25;1.63;;;1.10;;
5149;SDS011;2593;52.466;13.436;2023-07-20T08:22:55;1.63;;;1.10;;
5149;SDS011;2593;52.466;13.436;2023-07-20T08:25:21;2.50;;;1.30;;
5149;SDS011;2593;52.466;13.436;2023-07-20T08:27:47;3.57;;;1.20;;
5149;SDS011;2593;52.466;13.436;2023-07-20T08:30:13;1.93;;;1.70;;
5149;SDS011;2593;52.466;13.436;2023-07-20T08:32:39;2.53;;;2.00;;
5149;SDS011;2593;52.466;13.436;2023-07-20T08:35:06;2.73;;;1.20;;
5149;SDS011;2593;52.466;13.436;2023-07-20T08:37:32;2.40;;;0.80;;
5149;SDS011;2593;52.466;13.436;2023-07-20T08:39:58;1.17;;;0.80;;
5149;SDS011;2593;52.466;13.436;2023-07-20T08:42:24;3.00;;;1.00;;
5149;SDS011;2593;52.466;13.436;2023-07-20T08:44:50;0.83;;;0.70;;
5149;SDS011;2593;52.466;13.436;2023-07-20T08:47:18;6.57;;;0.90;;
5149;SDS011;2593;52.466;13.436;2023-07-20T08:49:47;15.00;;;1.13;;
5149;SDS011;2593;52.466;13.436;2023-07-20T08:52:14;2.10;;;1.00;;
5149;SDS011;2593;52.466;13.436;2023-07-20T08:54:40;3.20;;;0.80;;
5149;SDS011;2593;52.466;13.436;2023-07-20T08:57:06;1.33;;;0.70;;
5149;SDS011;2593;52.466;13.436;2023-07-20T08:59:32;4.70;;;0.93;;
5149;SDS011;2593;52.466;13.436;2023-07-20T09:02:00;2.20;;;1.10;;
5149;SDS011;2593;52.466;13.436;2023-07-20T09:04:26;3.28;;;0.75;;
5149;SDS011;2593;52.466;13.436;2023-07-20T09:06:52;0.80;;;0.60;;
5149;SDS011;2593;52.466;13.436;2023-07-20T09:09:18;0.90;;;0.73;;
5149;SDS011;2593;52.466;13.436;2023-07-20T09:11:48;1.35;;;0.75;;
5149;SDS011;2593;52.466;13.436;2023-07-20T09:14:15;1.75;;;0.70;;
5149;SDS011;2593;52.466;13.436;2023-07-20T09:16:52;0.70;;;0.60;;
5149;SDS011;2593;52.466;13.436;2023-07-20T09:19:18;1.45;;;0.68;;
5149;SDS011;2593;52.466;13.436;2023-07-20T09:21:45;1.42;;;0.60;;
5149;SDS011;2593;52.466;13.436;2023-07-20T09:24:12;2.45;;;0.63;;
5149;SDS011;2593;52.466;13.436;2023-07-20T09:26:41;5.00;;;0.70;;
5149;SDS011;2593;52.466;13.436;2023-07-20T09:29:08;1.50;;;1.00;;
5149;SDS011;2593;52.466;13.436;2023-07-20T09:31:35;2.08;;;0.70;;
5149;SDS011;2593;52.466;13.436;2023-07-20T09:34:01;1.20;;;0.85;;
5149;SDS011;2593;52.466;13.436;2023-07-20T09:36:28;0.90;;;0.80;;
5149;SDS011;2593;52.466;13.436;2023-07-20T09:38:56;1.10;;;0.70;;
5149;SDS011;2593;52.466;13.436;2023-07-20T09:41:24;6.85;;;0.80;;
5149;SDS011;2593;52.466;13.436;2023-07-20T09:43:51;5.97;;;1.13;;
5149;SDS011;2593;52.466;13.436;2023-07-20T09:46:18;3.03;;;0.70;;
5149;SDS011;2593;52.466;13.436;2023-07-20T09:48:54;0.93;;;0.90;;
5149;SDS011;2593;52.466;13.436;2023-07-20T09:51:23;0.80;;;0.70;;
5149;SDS011;2593;52.466;13.436;2023-07-20T09:53:51;1.40;;;0.90;;
5149;SDS011;2593;52.466;13.436;2023-07-20T09:56:21;3.80;;;0.90;;
5149;SDS011;2593;52.466;13.436;2023-07-20T09:58:48;11.00;;;1.23;;
5149;SDS011;2593;52.466;13.436;2023-07-20T10:01:16;12.73;;;0.90;;
5149;SDS011;2593;52.466;13.436;2023-07-20T10:03:44;0.93;;;0.70;;
5149;SDS011;2593;52.466;13.436;2023-07-20T10:06:12;1.30;;;0.80;;
5149;SDS011;2593;52.466;13.436;2023-07-20T10:08:41;1.20;;;1.00;;
5149;SDS011;2593;52.466;13.436;2023-07-20T10:11:08;2.67;;;0.90;;
5149;SDS011;2593;52.466;13.436;2023-07-20T10:13:37;1.10;;;0.90;;
5149;SDS011;2593;52.466;13.436;2023-07-20T10:16:04;2.97;;;1.60;;
5149;SDS011;2593;52.466;13.436;2023-07-20T10:18:37;5.67;;;1.03;;
5149;SDS011;2593;52.466;13.436;2023-07-20T10:21:04;4.00;;;1.10;;
5149;SDS011;2593;52.466;13.436;2023-07-20T10:23:33;0.97;;;0.87;;
5149;SDS011;2593;52.466;13.436;2023-07-20T10:26:00;1.47;;;0.90;;
5149;SDS011;2593;52.466;13.436;2023-07-20T10:28:28;8.57;;;1.13;;
5149;SDS011;2593;52.466;13.436;2023-07-20T10:30:54;0.90;;;0.80;;
5149;SDS011;2593;52.466;13.436;2023-07-20T10:33:20;1.30;;;1.20;;
5149;SDS011;2593;52.466;13.436;2023-07-20T10:35:50;3.80;;;1.03;;
5149;SDS011;2593;52.466;13.436;2023-07-20T10:38:17;6.70;;;1.17;;
5149;SDS011;2593;52.466;13.436;2023-07-20T10:40:43;9.00;;;1.50;;
5149;SDS011;2593;52.466;13.436;2023-07-20T10:43:19;2.13;;;1.27;;
5149;SDS011;2593;52.466;13.436;2023-07-20T10:45:49;2.83;;;1.10;;
5149;SDS011;2593;52.466;13.436;2023-07-20T10:48:19;1.67;;;1.30;;
5149;SDS011;2593;52.466;13.436;2023-07-20T10:50:46;1.83;;;1.03;;
5149;SDS011;2593;52.466;13.436;2023-07-20T10:53:13;4.73;;;1.73;;
5149;SDS011;2593;52.466;13.436;2023-07-20T10:55:40;3.73;;;1.60;;
5149;SDS011;2593;52.466;13.436;2023-07-20T10:58:14;1.00;;;0.90;;
5149;SDS011;2593;52.466;13.436;2023-07-20T11:01:02;1.70;;;0.97;;
5149;SDS011;2593;52.466;13.436;2023-07-20T11:03:33;2.27;;;1.67;;
5149;SDS011;2593;52.466;13.436;2023-07-20T11:05:59;1.30;;;1.13;;
5149;SDS011;2593;52.466;13.436;2023-07-20T11:08:45;1.17;;;1.07;;
5149;SDS011;2593;52.466;13.436;2023-07-20T11:11:21;2.50;;;2.30;;
5149;SDS011;2593;52.466;13.436;2023-07-20T11:13:55;5.17;;;1.20;;
5149;SDS011;2593;52.466;13.436;2023-07-20T11:16:38;15.93;;;6.73;;
5149;SDS011;2593;52.466;13.436;2023-07-20T11:19:05;2.90;;;2.00;;
5149;SDS011;2593;52.466;13.436;2023-07-20T11:21:37;1.93;;;1.20;;
5149;SDS011;2593;52.466;13.436;2023-07-20T11:24:05;4.20;;;1.00;;
5149;SDS011;2593;52.466;13.436;2023-07-20T11:26:39;4.83;;;0.80;;
5149;SDS011;2593;52.466;13.436;2023-07-20T11:29:05;2.27;;;1.23;;
5149;SDS011;2593;52.466;13.436;2023-07-20T11:31:34;1.87;;;1.20;;
5149;SDS011;2593;52.466;13.436;2023-07-20T11:34:00;2.80;;;1.50;;
5149;SDS011;2593;52.466;13.436;2023-07-20T11:36:26;1.40;;;1.00;;
5149;SDS011;2593;52.466;13.436;2023-07-20T11:38:53;3.17;;;1.40;;
5149;SDS011;2593;52.466;13.436;2023-07-20T11:41:19;0.97;;;0.87;;
5149;SDS011;2593;52.466;13.436;2023-07-20T11:43:46;1.43;;;1.20;;
5149;SDS011;2593;52.466;13.436;2023-07-20T11:46:13;6.97;;;1.00;;
5149;SDS011;2593;52.466;13.436;2023-07-20T11:48:41;2.13;;;1.73;;
5149;SDS011;2593;52.466;13.436;2023-07-20T11:51:12;1.97;;;0.80;;
5149;SDS011;2593;52.466;13.436;2023-07-20T11:53:39;2.40;;;1.10;;
5149;SDS011;2593;52.466;13.436;2023-07-20T11:56:06;2.20;;;1.20;;
5149;SDS011;2593;52.466;13.436;2023-07-20T11:58:32;3.03;;;1.10;;
5149;SDS011;2593;52.466;13.436;2023-07-20T12:00:58;1.60;;;1.07;;
5149;SDS011;2593;52.466;13.436;2023-07-20T12:03:24;1.30;;;0.80;;
5149;SDS011;2593;52.466;13.436;2023-07-20T12:05:50;1.37;;;1.00;;
5149;SDS011;2593;52.466;13.436;2023-07-20T12:08:16;2.40;;;1.10;;
5149;SDS011;2593;52.466;13.436;2023-07-20T12:10:42;1.17;;;1.07;;
5149;SDS011;2593;52.466;13.436;2023-07-20T12:13:09;1.90;;;0.93;;
5149;SDS011;2593;52.466;13.436;2023-07-20T12:15:36;1.00;;;0.90;;
5149;SDS011;2593;52.466;13.436;2023-07-20T12:18:03;3.63;;;1.00;;
5149;SDS011;2593;52.466;13.436;2023-07-20T12:23:11;1.50;;;0.87;;
5149;SDS011;2593;52.466;13.436;2023-07-20T12:28:08;6.07;;;1.07;;
5149;SDS011;2593;52.466;13.436;2023-07-20T12:30:34;1.00;;;0.90;;
5149;SDS011;2593;52.466;13.436;2023-07-20T12:33:01;1.10;;;0.90;;
5149;SDS011;2593;52.466;13.436;2023-07-20T12:35:28;3.13;;;1.00;;
5149;SDS011;2593;52.466;13.436;2023-07-20T12:37:54;3.07;;;1.00;;
5149;SDS011;2593;52.466;13.436;2023-07-20T12:40:20;1.87;;;1.03;;
5149;SDS011;2593;52.466;13.436;2023-07-20T12:42:46;2.20;;;1.27;;
5149;SDS011;2593;52.466;13.436;2023-07-20T12:45:12;3.63;;;1.00;;
5149;SDS011;2593;52.466;13.436;2023-07-20T12:47:39;1.17;;;0.80;;
5149;SDS011;2593;52.466;13.436;2023-07-20T12:50:05;1.30;;;0.80;;
5149;SDS011;2593;52.466;13.436;2023-07-20T12:52:35;1.20;;;0.77;;
5149;SDS011;2593;52.466;13.436;2023-07-20T12:55:02;6.30;;;1.20;;
5149;SDS011;2593;52.466;13.436;2023-07-20T12:57:28;3.90;;;0.80;;
5149;SDS011;2593;52.466;13.436;2023-07-20T12:59:54;2.90;;;0.90;;
5149;SDS011;2593;52.466;13.436;2023-07-20T13:02:20;3.03;;;0.90;;
5149;SDS011;2593;52.466;13.436;2023-07-20T13:04:46;2.03;;;0.83;;
5149;SDS011;2593;52.466;13.436;2023-07-20T13:07:12;1.50;;;1.27;;
5149;SDS011;2593;52.466;13.436;2023-07-20T13:09:38;1.23;;;0.80;;
5149;SDS011;2593;52.466;13.436;2023-07-20T13:12:04;3.90;;;0.70;;
5149;SDS011;2593;52.466;13.436;2023-07-20T13:14:30;3.13;;;0.70;;
5149;SDS011;2593;52.466;13.436;2023-07-20T13:16:57;1.70;;;0.90;;
5149;SDS011;2593;52.466;13.436;2023-07-20T13:19:23;2.63;;;0.80;;
5149;SDS011;2593;52.466;13.436;2023-07-20T13:21:49;0.90;;;0.70;;
5149;SDS011;2593;52.466;13.436;2023-07-20T13:24:16;2.90;;;0.70;;
5149;SDS011;2593;52.466;13.436;2023-07-20T13:26:42;1.00;;;0.83;;
5149;SDS011;2593;52.466;13.436;2023-07-20T13:29:08;2.60;;;1.17;;
5149;SDS011;2593;52.466;13.436;2023-07-20T13:31:34;1.07;;;0.80;;
5149;SDS011;2593;52.466;13.436;2023-07-20T13:34:00;1.40;;;1.30;;
5149;SDS011;2593;52.466;13.436;2023-07-20T13:36:26;1.00;;;0.70;;
5149;SDS011;2593;52.466;13.436;2023-07-20T13:38:52;2.57;;;0.90;;
5149;SDS011;2593;52.466;13.436;2023-07-20T13:41:19;3.23;;;0.80;;
5149;SDS011;2593;52.466;13.436;2023-07-20T13:43:45;2.60;;;0.87;;
5149;SDS011;2593;52.466;13.436;2023-07-20T13:46:11;2.00;;;0.80;;
5149;SDS011;2593;52.466;13.436;2023-07-20T13:48:37;1.00;;;0.80;;
5149;SDS011;2593;52.466;13.436;2023-07-20T13:51:03;1.30;;;0.80;;
5149;SDS011;2593;52.466;13.436;2023-07-20T13:53:29;3.37;;;0.90;;
5149;SDS011;2593;52.466;13.436;2023-07-20T13:55:55;1.23;;;0.70;;
5149;SDS011;2593;52.466;13.436;2023-07-20T13:58:22;2.17;;;0.77;;
5149;SDS011;2593;52.466;13.436;2023-07-20T14:00:48;0.80;;;0.80;;
5149;SDS011;2593;52.466;13.436;2023-07-20T14:03:14;2.17;;;0.90;;
5149;SDS011;2593;52.466;13.436;2023-07-20T14:05:40;7.13;;;0.80;;
5149;SDS011;2593;52.466;13.436;2023-07-20T14:08:06;0.90;;;0.70;;
5149;SDS011;2593;52.466;13.436;2023-07-20T14:10:32;7.73;;;0.70;;
5149;SDS011;2593;52.466;13.436;2023-07-20T14:12:58;2.70;;;1.23;;
5149;SDS011;2593;52.466;13.436;2023-07-20T14:15:24;4.60;;;1.23;;
5149;SDS011;2593;52.466;13.436;2023-07-20T14:17:50;0.80;;;0.80;;
5149;SDS011;2593;52.466;13.436;2023-07-20T14:20:16;1.67;;;0.80;;
5149;SDS011;2593;52.466;13.436;2023-07-20T14:22:42;3.23;;;0.70;;
5149;SDS011;2593;52.466;13.436;2023-07-20T14:25:09;2.90;;;0.83;;
5149;SDS011;2593;52.466;13.436;2023-07-20T14:27:35;2.30;;;1.13;;
5149;SDS011;2593;52.466;13.436;2023-07-20T14:30:01;5.13;;;0.90;;
5149;SDS011;2593;52.466;13.436;2023-07-20T14:32:28;1.20;;;0.70;;
5149;SDS011;2593;52.466;13.436;2023-07-20T14:34:55;2.13;;;1.60;;
5149;SDS011;2593;52.466;13.436;2023-07-20T14:37:21;1.60;;;1.50;;
5149;SDS011;2593;52.466;13.436;2023-07-20T14:39:47;1.97;;;1.43;;
5149;SDS011;2593;52.466;13.436;2023-07-20T14:42:13;2.00;;;1.50;;
5149;SDS011;2593;52.466;13.436;2023-07-20T14:44:39;0.90;;;0.70;;
5149;SDS011;2593;52.466;13.436;2023-07-20T14:47:05;0.97;;;0.80;;
5149;SDS011;2593;52.466;13.436;2023-07-20T14:49:31;5.03;;;1.07;;
5149;SDS011;2593;52.466;13.436;2023-07-20T14:51:57;5.13;;;4.50;;
5149;SDS011;2593;52.466;13.436;2023-07-20T14:54:24;3.23;;;2.80;;
5149;SDS011;2593;52.466;13.436;2023-07-20T14:56:50;3.07;;;1.50;;
5149;SDS011;2593;52.466;13.436;2023-07-20T14:59:17;1.23;;;1.00;;
5149;SDS011;2593;52.466;13.436;2023-07-20T15:01:44;4.23;;;2.20;;
5149;SDS011;2593;52.466;13.436;2023-07-20T15:04:16;3.37;;;2.67;;
5149;SDS011;2593;52.466;13.436;2023-07-20T15:06:42;2.50;;;2.30;;
5149;SDS011;2593;52.466;13.436;2023-07-20T15:09:08;1.30;;;1.00;;